sensor_id;sensor_type;location;lat;lon;timestamp;P1;durP1;ratioP1;P2;durP2;ratioP2
20478;SDS011;10398;52.490;13.434;2023-04-25T00:01:05;3.77;;;1.17;;
20478;SDS011;10398;52.490;13.434;2023-04-25T00:03:31;2.90;;;1.40;;
20478;SDS011;10398;52.490;13.434;2023-04-25T00:05:58;2.17;;;1.20;;
20478;SDS011;10398;52.490;13.434;2023-04-25T00:08:28;4.30;;;1.20;;
20478;SDS011;10398;52.490;13.434;2023-04-25T00:10:55;2.70;;;1.13;;
20478;SDS011;10398;52.490;13.434;2023-04-25T00:13:21;2.87;;;1.03;;
20478;SDS011;10398;52.490;13.434;2023-04-25T00:15:47;4.03;;;1.40;;
20478;SDS011;10398;52.490;13.434;2023-04-25T00:18:13;1.73;;;1.00;;
20478;SDS011;10398;52.490;13.434;2023-04-25T00:20:39;1.60;;;1.00;;
20478;SDS011;10398;52.490;13.434;2023-04-25T00:23:05;3.60;;;1.83;;
20478;SDS011;10398;52.490;13.434;2023-04-25T00:25:31;3.77;;;1.20;;
20478;SDS011;10398;52.490;13.434;2023-04-25T00:27:56;3.13;;;1.47;;
20478;SDS011;10398;52.490;13.434;2023-04-25T00:30:22;2.53;;;1.10;;
20478;SDS011;10398;52.490;13.434;2023-04-25T00:32:48;2.43;;;1.10;;
20478;SDS011;10398;52.490;13.434;2023-04-25T00:35:13;2.83;;;1.10;;
20478;SDS011;10398;52.490;13.434;2023-04-25T00:37:39;7.13;;;1.43;;
20478;SDS011;10398;52.490;13.434;2023-04-25T00:40:05;4.50;;;1.57;;
20478;SDS011;10398;52.490;13.434;2023-04-25T00:42:32;5.03;;;1.00;;
20478;SDS011;10398;52.490;13.434;2023-04-25T00:44:59;4.73;;;1.00;;
20478;SDS011;10398;52.490;13.434;2023-04-25T00:47:25;3.60;;;0.90;;
20478;SDS011;10398;52.490;13.434;2023-04-25T00:49:51;4.00;;;1.20;;
20478;SDS011;10398;52.490;13.434;2023-04-25T00:52:18;3.20;;;1.10;;
20478;SDS011;10398;52.490;13.434;2023-04-25T00:54:44;3.43;;;1.23;;
20478;SDS011;10398;52.490;13.434;2023-04-25T00:57:10;5.47;;;1.10;;
20478;SDS011;10398;52.490;13.434;2023-04-25T00:59:36;2.20;;;1.10;;
20478;SDS011;10398;52.490;13.434;2023-04-25T01:02:03;5.23;;;1.80;;
20478;SDS011;10398;52.490;13.434;2023-04-25T01:04:30;7.60;;;1.20;;
20478;SDS011;10398;52.490;13.434;2023-04-25T01:06:55;3.00;;;1.00;;
20478;SDS011;10398;52.490;13.434;2023-04-25T01:09:22;4.67;;;1.47;;
20478;SDS011;10398;52.490;13.434;2023-04-25T01:11:49;1.77;;;0.97;;
20478;SDS011;10398;52.490;13.434;2023-04-25T01:14:14;3.63;;;1.80;;
20478;SDS011;10398;52.490;13.434;2023-04-25T01:16:41;5.53;;;1.33;;
20478;SDS011;10398;52.490;13.434;2023-04-25T01:19:08;6.00;;;1.20;;
20478;SDS011;10398;52.490;13.434;2023-04-25T01:21:37;2.30;;;1.30;;
20478;SDS011;10398;52.490;13.434;2023-04-25T01:24:03;3.43;;;1.20;;
20478;SDS011;10398;52.490;13.434;2023-04-25T01:26:29;3.10;;;1.40;;
20478;SDS011;10398;52.490;13.434;2023-04-25T01:28:55;5.60;;;1.40;;
20478;SDS011;10398;52.490;13.434;2023-04-25T01:31:21;4.47;;;1.33;;
20478;SDS011;10398;52.490;13.434;2023-04-25T01:33:47;3.33;;;1.20;;
20478;SDS011;10398;52.490;13.434;2023-04-25T01:36:13;6.17;;;1.50;;
20478;SDS011;10398;52.490;13.434;2023-04-25T01:38:40;5.03;;;1.40;;
20478;SDS011;10398;52.490;13.434;2023-04-25T01:41:06;4.47;;;1.43;;
20478;SDS011;10398;52.490;13.434;2023-04-25T01:43:32;5.27;;;1.37;;
20478;SDS011;10398;52.490;13.434;2023-04-25T01:45:57;3.37;;;1.77;;
20478;SDS011;10398;52.490;13.434;2023-04-25T01:48:24;6.43;;;1.43;;
20478;SDS011;10398;52.490;13.434;2023-04-25T01:50:50;3.03;;;1.50;;
20478;SDS011;10398;52.490;13.434;2023-04-25T01:53:16;4.17;;;1.70;;
20478;SDS011;10398;52.490;13.434;2023-04-25T01:55:41;6.00;;;1.30;;
20478;SDS011;10398;52.490;13.434;2023-04-25T01:58:07;4.70;;;1.60;;
20478;SDS011;10398;52.490;13.434;2023-04-25T02:00:35;4.53;;;1.70;;
20478;SDS011;10398;52.490;13.434;2023-04-25T02:03:03;5.37;;;1.80;;
20478;SDS011;10398;52.490;13.434;2023-04-25T02:05:36;7.20;;;1.43;;
20478;SDS011;10398;52.490;13.434;2023-04-25T02:08:04;3.87;;;1.60;;
20478;SDS011;10398;52.490;13.434;2023-04-25T02:10:31;3.27;;;1.60;;
20478;SDS011;10398;52.490;13.434;2023-04-25T02:12:57;8.30;;;1.87;;
20478;SDS011;10398;52.490;13.434;2023-04-25T02:15:23;6.60;;;1.73;;
20478;SDS011;10398;52.490;13.434;2023-04-25T02:17:49;7.60;;;1.90;;
20478;SDS011;10398;52.490;13.434;2023-04-25T02:20:15;7.37;;;1.70;;
20478;SDS011;10398;52.490;13.434;2023-04-25T02:22:45;4.03;;;1.53;;
20478;SDS011;10398;52.490;13.434;2023-04-25T02:25:11;3.33;;;1.37;;
20478;SDS011;10398;52.490;13.434;2023-04-25T02:27:36;7.60;;;1.70;;
20478;SDS011;10398;52.490;13.434;2023-04-25T02:30:03;5.20;;;1.50;;
20478;SDS011;10398;52.490;13.434;2023-04-25T02:32:29;3.10;;;1.50;;
20478;SDS011;10398;52.490;13.434;2023-04-25T02:34:55;3.97;;;1.70;;
20478;SDS011;10398;52.490;13.434;2023-04-25T02:37:23;2.57;;;1.43;;
20478;SDS011;10398;52.490;13.434;2023-04-25T02:39:49;5.53;;;1.93;;
20478;SDS011;10398;52.490;13.434;2023-04-25T02:42:14;2.23;;;1.43;;
20478;SDS011;10398;52.490;13.434;2023-04-25T02:44:40;6.30;;;1.93;;
20478;SDS011;10398;52.490;13.434;2023-04-25T02:47:06;7.60;;;2.03;;
20478;SDS011;10398;52.490;13.434;2023-04-25T02:49:31;7.10;;;1.93;;
20478;SDS011;10398;52.490;13.434;2023-04-25T02:51:57;3.97;;;1.80;;
20478;SDS011;10398;52.490;13.434;2023-04-25T02:54:23;6.17;;;1.87;;
20478;SDS011;10398;52.490;13.434;2023-04-25T02:56:48;5.20;;;1.90;;
20478;SDS011;10398;52.490;13.434;2023-04-25T02:59:14;5.80;;;1.90;;
20478;SDS011;10398;52.490;13.434;2023-04-25T03:01:40;4.73;;;1.77;;
20478;SDS011;10398;52.490;13.434;2023-04-25T03:04:06;5.80;;;1.80;;
20478;SDS011;10398;52.490;13.434;2023-04-25T03:06:31;4.00;;;1.60;;
20478;SDS011;10398;52.490;13.434;2023-04-25T03:08:57;7.77;;;2.30;;
20478;SDS011;10398;52.490;13.434;2023-04-25T03:11:24;4.33;;;1.90;;
20478;SDS011;10398;52.490;13.434;2023-04-25T03:13:50;4.50;;;1.90;;
20478;SDS011;10398;52.490;13.434;2023-04-25T03:16:16;3.77;;;1.60;;
20478;SDS011;10398;52.490;13.434;2023-04-25T03:18:41;6.80;;;1.93;;
20478;SDS011;10398;52.490;13.434;2023-04-25T03:21:07;4.33;;;1.60;;
20478;SDS011;10398;52.490;13.434;2023-04-25T03:23:33;5.90;;;2.10;;
20478;SDS011;10398;52.490;13.434;2023-04-25T03:25:58;6.67;;;1.90;;
20478;SDS011;10398;52.490;13.434;2023-04-25T03:28:24;5.63;;;2.20;;
20478;SDS011;10398;52.490;13.434;2023-04-25T03:30:50;4.77;;;1.70;;
20478;SDS011;10398;52.490;13.434;2023-04-25T03:33:15;7.53;;;2.40;;
20478;SDS011;10398;52.490;13.434;2023-04-25T03:35:41;5.70;;;2.03;;
20478;SDS011;10398;52.490;13.434;2023-04-25T03:38:07;6.17;;;2.07;;
20478;SDS011;10398;52.490;13.434;2023-04-25T03:40:33;7.43;;;2.20;;
20478;SDS011;10398;52.490;13.434;2023-04-25T03:42:59;8.47;;;1.97;;
20478;SDS011;10398;52.490;13.434;2023-04-25T03:45:24;4.50;;;1.90;;
20478;SDS011;10398;52.490;13.434;2023-04-25T03:47:50;6.03;;;2.13;;
20478;SDS011;10398;52.490;13.434;2023-04-25T03:50:16;3.47;;;2.00;;
20478;SDS011;10398;52.490;13.434;2023-04-25T03:52:42;5.03;;;2.43;;
20478;SDS011;10398;52.490;13.434;2023-04-25T03:55:08;7.03;;;2.27;;
20478;SDS011;10398;52.490;13.434;2023-04-25T03:57:34;6.90;;;2.10;;
20478;SDS011;10398;52.490;13.434;2023-04-25T03:59:59;10.23;;;2.13;;
20478;SDS011;10398;52.490;13.434;2023-04-25T04:02:25;6.27;;;2.27;;
20478;SDS011;10398;52.490;13.434;2023-04-25T04:04:51;7.07;;;1.70;;
20478;SDS011;10398;52.490;13.434;2023-04-25T04:07:16;9.33;;;2.20;;
20478;SDS011;10398;52.490;13.434;2023-04-25T04:09:42;5.03;;;1.90;;
20478;SDS011;10398;52.490;13.434;2023-04-25T04:12:08;4.37;;;2.13;;
20478;SDS011;10398;52.490;13.434;2023-04-25T04:14:33;4.97;;;2.30;;
20478;SDS011;10398;52.490;13.434;2023-04-25T04:16:59;5.63;;;1.90;;
20478;SDS011;10398;52.490;13.434;2023-04-25T04:19:25;5.17;;;2.03;;
20478;SDS011;10398;52.490;13.434;2023-04-25T04:21:50;4.43;;;1.93;;
20478;SDS011;10398;52.490;13.434;2023-04-25T04:24:16;7.47;;;2.00;;
20478;SDS011;10398;52.490;13.434;2023-04-25T04:26:42;4.77;;;2.20;;
20478;SDS011;10398;52.490;13.434;2023-04-25T04:29:09;7.83;;;2.30;;
20478;SDS011;10398;52.490;13.434;2023-04-25T04:31:36;4.37;;;1.87;;
20478;SDS011;10398;52.490;13.434;2023-04-25T04:34:02;9.87;;;2.23;;
20478;SDS011;10398;52.490;13.434;2023-04-25T04:36:28;5.83;;;2.07;;
20478;SDS011;10398;52.490;13.434;2023-04-25T04:38:54;7.47;;;2.13;;
20478;SDS011;10398;52.490;13.434;2023-04-25T04:41:21;5.50;;;2.27;;
20478;SDS011;10398;52.490;13.434;2023-04-25T04:43:47;4.30;;;1.90;;
20478;SDS011;10398;52.490;13.434;2023-04-25T04:46:13;4.10;;;1.83;;
20478;SDS011;10398;52.490;13.434;2023-04-25T04:48:39;7.40;;;1.87;;
20478;SDS011;10398;52.490;13.434;2023-04-25T04:51:05;9.90;;;2.20;;
20478;SDS011;10398;52.490;13.434;2023-04-25T04:53:31;7.63;;;2.20;;
20478;SDS011;10398;52.490;13.434;2023-04-25T04:55:57;2.73;;;1.73;;
20478;SDS011;10398;52.490;13.434;2023-04-25T04:58:23;9.87;;;2.33;;
20478;SDS011;10398;52.490;13.434;2023-04-25T05:00:49;3.90;;;1.87;;
20478;SDS011;10398;52.490;13.434;2023-04-25T05:03:15;7.60;;;2.20;;
20478;SDS011;10398;52.490;13.434;2023-04-25T05:05:41;7.03;;;2.43;;
20478;SDS011;10398;52.490;13.434;2023-04-25T05:08:06;6.40;;;2.20;;
20478;SDS011;10398;52.490;13.434;2023-04-25T05:10:32;8.67;;;1.57;;
20478;SDS011;10398;52.490;13.434;2023-04-25T05:12:58;3.23;;;1.90;;
20478;SDS011;10398;52.490;13.434;2023-04-25T05:15:24;7.03;;;2.30;;
20478;SDS011;10398;52.490;13.434;2023-04-25T05:17:50;5.47;;;2.07;;
20478;SDS011;10398;52.490;13.434;2023-04-25T05:20:15;3.63;;;1.97;;
20478;SDS011;10398;52.490;13.434;2023-04-25T05:22:43;9.30;;;2.53;;
20478;SDS011;10398;52.490;13.434;2023-04-25T05:25:09;5.43;;;1.97;;
20478;SDS011;10398;52.490;13.434;2023-04-25T05:27:34;6.97;;;2.10;;
20478;SDS011;10398;52.490;13.434;2023-04-25T05:30:00;4.40;;;1.93;;
20478;SDS011;10398;52.490;13.434;2023-04-25T05:32:26;6.37;;;2.33;;
20478;SDS011;10398;52.490;13.434;2023-04-25T05:34:52;5.20;;;2.30;;
20478;SDS011;10398;52.490;13.434;2023-04-25T05:37:17;4.80;;;1.97;;
20478;SDS011;10398;52.490;13.434;2023-04-25T05:39:43;5.93;;;2.20;;
20478;SDS011;10398;52.490;13.434;2023-04-25T05:42:09;8.90;;;2.20;;
20478;SDS011;10398;52.490;13.434;2023-04-25T05:44:35;7.03;;;2.20;;
20478;SDS011;10398;52.490;13.434;2023-04-25T05:47:03;10.63;;;2.07;;
20478;SDS011;10398;52.490;13.434;2023-04-25T05:49:29;4.03;;;2.10;;
20478;SDS011;10398;52.490;13.434;2023-04-25T05:51:55;5.20;;;2.10;;
20478;SDS011;10398;52.490;13.434;2023-04-25T05:54:21;5.43;;;2.20;;
20478;SDS011;10398;52.490;13.434;2023-04-25T05:56:47;5.00;;;2.23;;
20478;SDS011;10398;52.490;13.434;2023-04-25T05:59:12;6.90;;;1.97;;
20478;SDS011;10398;52.490;13.434;2023-04-25T06:01:38;8.13;;;2.67;;
20478;SDS011;10398;52.490;13.434;2023-04-25T06:04:03;4.47;;;2.20;;
20478;SDS011;10398;52.490;13.434;2023-04-25T06:06:29;8.57;;;2.07;;
20478;SDS011;10398;52.490;13.434;2023-04-25T06:08:55;11.70;;;2.77;;
20478;SDS011;10398;52.490;13.434;2023-04-25T06:11:20;5.37;;;2.17;;
20478;SDS011;10398;52.490;13.434;2023-04-25T06:13:46;10.27;;;2.83;;
20478;SDS011;10398;52.490;13.434;2023-04-25T06:16:12;9.43;;;3.00;;
20478;SDS011;10398;52.490;13.434;2023-04-25T06:18:37;5.27;;;2.33;;
20478;SDS011;10398;52.490;13.434;2023-04-25T06:21:03;12.43;;;3.23;;
20478;SDS011;10398;52.490;13.434;2023-04-25T06:23:29;5.67;;;2.30;;
20478;SDS011;10398;52.490;13.434;2023-04-25T06:25:55;5.60;;;2.50;;
20478;SDS011;10398;52.490;13.434;2023-04-25T06:28:20;7.70;;;2.77;;
20478;SDS011;10398;52.490;13.434;2023-04-25T06:30:47;14.10;;;2.73;;
20478;SDS011;10398;52.490;13.434;2023-04-25T06:33:13;6.43;;;2.90;;
20478;SDS011;10398;52.490;13.434;2023-04-25T06:35:38;5.37;;;2.70;;
20478;SDS011;10398;52.490;13.434;2023-04-25T06:38:04;9.70;;;3.20;;
20478;SDS011;10398;52.490;13.434;2023-04-25T06:40:30;7.73;;;2.40;;
20478;SDS011;10398;52.490;13.434;2023-04-25T06:42:55;4.87;;;2.33;;
20478;SDS011;10398;52.490;13.434;2023-04-25T06:45:21;7.83;;;2.90;;
20478;SDS011;10398;52.490;13.434;2023-04-25T06:47:46;7.57;;;2.17;;
20478;SDS011;10398;52.490;13.434;2023-04-25T06:50:12;9.13;;;2.97;;
20478;SDS011;10398;52.490;13.434;2023-04-25T06:52:38;7.47;;;2.53;;
20478;SDS011;10398;52.490;13.434;2023-04-25T06:55:03;9.47;;;2.40;;
20478;SDS011;10398;52.490;13.434;2023-04-25T06:57:30;5.63;;;2.37;;
20478;SDS011;10398;52.490;13.434;2023-04-25T06:59:56;11.87;;;2.37;;
20478;SDS011;10398;52.490;13.434;2023-04-25T07:02:21;4.50;;;2.27;;
20478;SDS011;10398;52.490;13.434;2023-04-25T07:04:47;4.20;;;2.03;;
20478;SDS011;10398;52.490;13.434;2023-04-25T07:07:13;5.53;;;2.03;;
20478;SDS011;10398;52.490;13.434;2023-04-25T07:09:38;5.30;;;2.30;;
20478;SDS011;10398;52.490;13.434;2023-04-25T07:12:04;5.07;;;2.40;;
20478;SDS011;10398;52.490;13.434;2023-04-25T07:14:30;4.53;;;1.90;;
20478;SDS011;10398;52.490;13.434;2023-04-25T07:16:56;3.53;;;1.70;;
20478;SDS011;10398;52.490;13.434;2023-04-25T07:19:22;4.93;;;2.17;;
20478;SDS011;10398;52.490;13.434;2023-04-25T07:21:51;6.60;;;2.10;;
20478;SDS011;10398;52.490;13.434;2023-04-25T07:24:17;6.80;;;2.13;;
20478;SDS011;10398;52.490;13.434;2023-04-25T07:26:43;3.53;;;2.10;;
20478;SDS011;10398;52.490;13.434;2023-04-25T07:29:09;4.03;;;1.90;;
20478;SDS011;10398;52.490;13.434;2023-04-25T07:31:34;7.73;;;2.03;;
20478;SDS011;10398;52.490;13.434;2023-04-25T07:34:00;9.63;;;2.10;;
20478;SDS011;10398;52.490;13.434;2023-04-25T07:36:26;10.77;;;1.90;;
20478;SDS011;10398;52.490;13.434;2023-04-25T07:38:52;3.70;;;1.80;;
20478;SDS011;10398;52.490;13.434;2023-04-25T07:41:17;8.13;;;2.07;;
20478;SDS011;10398;52.490;13.434;2023-04-25T07:43:43;11.03;;;2.20;;
20478;SDS011;10398;52.490;13.434;2023-04-25T07:46:09;5.93;;;2.30;;
20478;SDS011;10398;52.490;13.434;2023-04-25T07:48:35;7.60;;;1.90;;
20478;SDS011;10398;52.490;13.434;2023-04-25T07:51:02;8.93;;;1.87;;
20478;SDS011;10398;52.490;13.434;2023-04-25T07:53:30;7.80;;;2.63;;
20478;SDS011;10398;52.490;13.434;2023-04-25T07:55:56;11.70;;;2.17;;
20478;SDS011;10398;52.490;13.434;2023-04-25T07:58:21;8.03;;;2.67;;
20478;SDS011;10398;52.490;13.434;2023-04-25T08:00:47;8.40;;;2.00;;
20478;SDS011;10398;52.490;13.434;2023-04-25T08:03:13;13.33;;;2.47;;
20478;SDS011;10398;52.490;13.434;2023-04-25T08:05:39;10.00;;;2.50;;
20478;SDS011;10398;52.490;13.434;2023-04-25T08:08:04;7.07;;;2.40;;
20478;SDS011;10398;52.490;13.434;2023-04-25T08:10:31;15.20;;;2.90;;
20478;SDS011;10398;52.490;13.434;2023-04-25T08:12:58;8.40;;;2.40;;
20478;SDS011;10398;52.490;13.434;2023-04-25T08:15:24;11.60;;;2.27;;
20478;SDS011;10398;52.490;13.434;2023-04-25T08:17:50;8.83;;;2.07;;
20478;SDS011;10398;52.490;13.434;2023-04-25T08:20:16;15.17;;;2.20;;
20478;SDS011;10398;52.490;13.434;2023-04-25T08:22:42;7.93;;;1.73;;
20478;SDS011;10398;52.490;13.434;2023-04-25T08:25:07;8.87;;;2.23;;
20478;SDS011;10398;52.490;13.434;2023-04-25T08:27:33;8.67;;;2.23;;
20478;SDS011;10398;52.490;13.434;2023-04-25T08:29:59;13.97;;;2.80;;
20478;SDS011;10398;52.490;13.434;2023-04-25T08:32:25;13.90;;;2.33;;
20478;SDS011;10398;52.490;13.434;2023-04-25T08:34:51;11.37;;;2.30;;
20478;SDS011;10398;52.490;13.434;2023-04-25T08:37:19;11.93;;;2.10;;
20478;SDS011;10398;52.490;13.434;2023-04-25T08:39:45;13.90;;;2.33;;
20478;SDS011;10398;52.490;13.434;2023-04-25T08:42:13;10.33;;;2.13;;
20478;SDS011;10398;52.490;13.434;2023-04-25T08:44:40;15.17;;;2.60;;
20478;SDS011;10398;52.490;13.434;2023-04-25T08:47:05;14.10;;;3.17;;
20478;SDS011;10398;52.490;13.434;2023-04-25T08:49:31;11.63;;;2.30;;
20478;SDS011;10398;52.490;13.434;2023-04-25T08:52:02;10.37;;;2.43;;
20478;SDS011;10398;52.490;13.434;2023-04-25T08:54:30;11.40;;;2.13;;
20478;SDS011;10398;52.490;13.434;2023-04-25T08:56:57;10.53;;;1.87;;
20478;SDS011;10398;52.490;13.434;2023-04-25T08:59:26;9.43;;;1.70;;
20478;SDS011;10398;52.490;13.434;2023-04-25T09:01:53;9.97;;;1.97;;
20478;SDS011;10398;52.490;13.434;2023-04-25T09:04:19;9.20;;;2.23;;
20478;SDS011;10398;52.490;13.434;2023-04-25T09:06:45;10.87;;;2.17;;
20478;SDS011;10398;52.490;13.434;2023-04-25T09:09:11;7.73;;;1.90;;
20478;SDS011;10398;52.490;13.434;2023-04-25T09:11:37;8.97;;;2.00;;
20478;SDS011;10398;52.490;13.434;2023-04-25T09:14:12;11.83;;;1.90;;
20478;SDS011;10398;52.490;13.434;2023-04-25T09:19:26;7.90;;;1.77;;
20478;SDS011;10398;52.490;13.434;2023-04-25T09:21:58;10.50;;;1.87;;
20478;SDS011;10398;52.490;13.434;2023-04-25T09:27:05;7.80;;;1.70;;
20478;SDS011;10398;52.490;13.434;2023-04-25T09:29:36;7.53;;;2.20;;
20478;SDS011;10398;52.490;13.434;2023-04-25T09:32:24;14.10;;;2.27;;
20478;SDS011;10398;52.490;13.434;2023-04-25T09:34:51;8.10;;;1.73;;
20478;SDS011;10398;52.490;13.434;2023-04-25T09:37:21;8.60;;;1.70;;
20478;SDS011;10398;52.490;13.434;2023-04-25T09:39:48;7.50;;;1.50;;
20478;SDS011;10398;52.490;13.434;2023-04-25T09:42:16;9.13;;;2.30;;
20478;SDS011;10398;52.490;13.434;2023-04-25T09:44:42;10.03;;;2.10;;
20478;SDS011;10398;52.490;13.434;2023-04-25T09:47:10;9.23;;;1.90;;
20478;SDS011;10398;52.490;13.434;2023-04-25T09:49:40;11.63;;;1.83;;
20478;SDS011;10398;52.490;13.434;2023-04-25T09:52:07;6.50;;;1.53;;
20478;SDS011;10398;52.490;13.434;2023-04-25T09:54:33;7.20;;;1.90;;
20478;SDS011;10398;52.490;13.434;2023-04-25T09:57:02;5.77;;;2.03;;
20478;SDS011;10398;52.490;13.434;2023-04-25T10:00:10;6.47;;;1.60;;
20478;SDS011;10398;52.490;13.434;2023-04-25T10:02:34;10.80;;;1.60;;
20478;SDS011;10398;52.490;13.434;2023-04-25T10:05:00;10.07;;;2.00;;
20478;SDS011;10398;52.490;13.434;2023-04-25T10:07:30;3.93;;;1.27;;
20478;SDS011;10398;52.490;13.434;2023-04-25T10:09:59;10.57;;;2.23;;
20478;SDS011;10398;52.490;13.434;2023-04-25T10:12:28;11.27;;;2.87;;
20478;SDS011;10398;52.490;13.434;2023-04-25T10:14:54;16.13;;;2.93;;
20478;SDS011;10398;52.490;13.434;2023-04-25T10:17:20;10.70;;;2.60;;
20478;SDS011;10398;52.490;13.434;2023-04-25T10:19:47;9.97;;;2.30;;
20478;SDS011;10398;52.490;13.434;2023-04-25T10:22:17;12.97;;;3.00;;
20478;SDS011;10398;52.490;13.434;2023-04-25T10:24:48;9.03;;;1.80;;
20478;SDS011;10398;52.490;13.434;2023-04-25T10:27:15;8.60;;;2.40;;
20478;SDS011;10398;52.490;13.434;2023-04-25T10:29:41;8.47;;;2.03;;
20478;SDS011;10398;52.490;13.434;2023-04-25T10:32:10;8.03;;;2.03;;
20478;SDS011;10398;52.490;13.434;2023-04-25T10:34:42;8.77;;;2.13;;
20478;SDS011;10398;52.490;13.434;2023-04-25T10:37:12;24.23;;;3.53;;
20478;SDS011;10398;52.490;13.434;2023-04-25T10:39:41;10.00;;;1.53;;
20478;SDS011;10398;52.490;13.434;2023-04-25T10:42:08;7.00;;;1.80;;
20478;SDS011;10398;52.490;13.434;2023-04-25T10:44:34;5.90;;;1.70;;
20478;SDS011;10398;52.490;13.434;2023-04-25T10:47:01;3.57;;;1.43;;
20478;SDS011;10398;52.490;13.434;2023-04-25T10:49:34;9.83;;;2.00;;
20478;SDS011;10398;52.490;13.434;2023-04-25T10:52:26;10.80;;;2.20;;
20478;SDS011;10398;52.490;13.434;2023-04-25T10:54:54;8.43;;;1.80;;
20478;SDS011;10398;52.490;13.434;2023-04-25T10:57:26;8.03;;;1.60;;
20478;SDS011;10398;52.490;13.434;2023-04-25T11:02:45;5.60;;;1.77;;
20478;SDS011;10398;52.490;13.434;2023-04-25T11:05:16;6.67;;;1.83;;
20478;SDS011;10398;52.490;13.434;2023-04-25T11:08:06;6.30;;;1.90;;
20478;SDS011;10398;52.490;13.434;2023-04-25T11:10:36;4.57;;;1.50;;
20478;SDS011;10398;52.490;13.434;2023-04-25T11:13:05;9.03;;;1.80;;
20478;SDS011;10398;52.490;13.434;2023-04-25T11:15:30;7.63;;;1.53;;
20478;SDS011;10398;52.490;13.434;2023-04-25T11:17:56;5.63;;;1.33;;
20478;SDS011;10398;52.490;13.434;2023-04-25T11:20:22;6.57;;;2.00;;
20478;SDS011;10398;52.490;13.434;2023-04-25T11:22:50;9.00;;;1.40;;
20478;SDS011;10398;52.490;13.434;2023-04-25T11:25:16;5.97;;;1.33;;
20478;SDS011;10398;52.490;13.434;2023-04-25T11:27:52;7.50;;;1.50;;
20478;SDS011;10398;52.490;13.434;2023-04-25T11:30:18;6.03;;;1.47;;
20478;SDS011;10398;52.490;13.434;2023-04-25T11:32:45;6.23;;;1.20;;
20478;SDS011;10398;52.490;13.434;2023-04-25T11:35:11;6.70;;;1.80;;
20478;SDS011;10398;52.490;13.434;2023-04-25T11:37:41;8.67;;;1.73;;
20478;SDS011;10398;52.490;13.434;2023-04-25T11:40:08;5.60;;;1.73;;
20478;SDS011;10398;52.490;13.434;2023-04-25T11:42:38;4.20;;;1.30;;
20478;SDS011;10398;52.490;13.434;2023-04-25T11:45:13;9.40;;;1.60;;
20478;SDS011;10398;52.490;13.434;2023-04-25T11:47:39;12.87;;;2.00;;
20478;SDS011;10398;52.490;13.434;2023-04-25T11:50:06;36.63;;;6.30;;
20478;SDS011;10398;52.490;13.434;2023-04-25T11:52:39;72.07;;;11.33;;
20478;SDS011;10398;52.490;13.434;2023-04-25T11:55:13;30.30;;;6.33;;
20478;SDS011;10398;52.490;13.434;2023-04-25T11:57:43;5.77;;;1.87;;
20478;SDS011;10398;52.490;13.434;2023-04-25T12:00:18;9.87;;;1.67;;
20478;SDS011;10398;52.490;13.434;2023-04-25T12:02:46;5.17;;;1.50;;
20478;SDS011;10398;52.490;13.434;2023-04-25T12:05:15;8.43;;;1.40;;
20478;SDS011;10398;52.490;13.434;2023-04-25T12:07:41;5.43;;;1.20;;
20478;SDS011;10398;52.490;13.434;2023-04-25T12:10:11;6.03;;;1.60;;
20478;SDS011;10398;52.490;13.434;2023-04-25T12:12:41;7.70;;;1.67;;
20478;SDS011;10398;52.490;13.434;2023-04-25T12:15:08;3.80;;;1.40;;
20478;SDS011;10398;52.490;13.434;2023-04-25T12:17:53;5.47;;;1.80;;
20478;SDS011;10398;52.490;13.434;2023-04-25T12:20:28;5.67;;;1.40;;
20478;SDS011;10398;52.490;13.434;2023-04-25T12:22:57;5.87;;;1.50;;
20478;SDS011;10398;52.490;13.434;2023-04-25T12:28:16;13.17;;;3.77;;
20478;SDS011;10398;52.490;13.434;2023-04-25T12:31:22;9.50;;;2.17;;
20478;SDS011;10398;52.490;13.434;2023-04-25T12:33:41;9.90;;;1.57;;
20478;SDS011;10398;52.490;13.434;2023-04-25T12:36:07;7.63;;;1.73;;
20478;SDS011;10398;52.490;13.434;2023-04-25T12:38:38;5.77;;;1.00;;
20478;SDS011;10398;52.490;13.434;2023-04-25T12:41:04;6.63;;;1.40;;
20478;SDS011;10398;52.490;13.434;2023-04-25T12:43:30;11.00;;;1.83;;
20478;SDS011;10398;52.490;13.434;2023-04-25T12:45:56;6.63;;;1.47;;
20478;SDS011;10398;52.490;13.434;2023-04-25T12:48:22;6.70;;;1.53;;
20478;SDS011;10398;52.490;13.434;2023-04-25T12:50:49;5.20;;;1.30;;
20478;SDS011;10398;52.490;13.434;2023-04-25T12:53:16;5.47;;;1.10;;
20478;SDS011;10398;52.490;13.434;2023-04-25T12:55:43;3.50;;;1.43;;
20478;SDS011;10398;52.490;13.434;2023-04-25T12:58:17;4.60;;;1.53;;
20478;SDS011;10398;52.490;13.434;2023-04-25T13:00:43;4.40;;;1.47;;
20478;SDS011;10398;52.490;13.434;2023-04-25T13:03:10;4.83;;;1.20;;
20478;SDS011;10398;52.490;13.434;2023-04-25T13:05:48;8.27;;;1.30;;
20478;SDS011;10398;52.490;13.434;2023-04-25T13:08:13;4.10;;;0.83;;
20478;SDS011;10398;52.490;13.434;2023-04-25T13:10:39;5.70;;;1.73;;
20478;SDS011;10398;52.490;13.434;2023-04-25T13:13:05;6.03;;;1.30;;
20478;SDS011;10398;52.490;13.434;2023-04-25T13:15:30;5.97;;;1.60;;
20478;SDS011;10398;52.490;13.434;2023-04-25T13:17:56;5.23;;;1.00;;
20478;SDS011;10398;52.490;13.434;2023-04-25T13:20:21;6.60;;;1.30;;
20478;SDS011;10398;52.490;13.434;2023-04-25T13:22:47;7.57;;;2.03;;
20478;SDS011;10398;52.490;13.434;2023-04-25T13:25:13;4.13;;;1.67;;
20478;SDS011;10398;52.490;13.434;2023-04-25T13:27:39;2.73;;;0.93;;
20478;SDS011;10398;52.490;13.434;2023-04-25T13:30:05;5.53;;;1.03;;
20478;SDS011;10398;52.490;13.434;2023-04-25T13:32:34;5.17;;;1.43;;
20478;SDS011;10398;52.490;13.434;2023-04-25T13:35:04;3.93;;;0.90;;
20478;SDS011;10398;52.490;13.434;2023-04-25T13:37:31;6.40;;;1.37;;
20478;SDS011;10398;52.490;13.434;2023-04-25T13:40:01;3.20;;;0.90;;
20478;SDS011;10398;52.490;13.434;2023-04-25T13:42:29;5.20;;;1.20;;
20478;SDS011;10398;52.490;13.434;2023-04-25T13:44:55;5.20;;;1.10;;
20478;SDS011;10398;52.490;13.434;2023-04-25T13:47:22;5.70;;;1.10;;
20478;SDS011;10398;52.490;13.434;2023-04-25T13:49:48;4.63;;;1.10;;
20478;SDS011;10398;52.490;13.434;2023-04-25T13:52:14;7.40;;;1.27;;
20478;SDS011;10398;52.490;13.434;2023-04-25T13:54:40;4.10;;;1.10;;
20478;SDS011;10398;52.490;13.434;2023-04-25T13:57:06;6.17;;;1.23;;
20478;SDS011;10398;52.490;13.434;2023-04-25T13:59:32;5.67;;;1.17;;
20478;SDS011;10398;52.490;13.434;2023-04-25T14:01:57;5.23;;;1.07;;
20478;SDS011;10398;52.490;13.434;2023-04-25T14:04:23;6.07;;;1.30;;
20478;SDS011;10398;52.490;13.434;2023-04-25T14:06:50;6.03;;;1.10;;
20478;SDS011;10398;52.490;13.434;2023-04-25T14:09:16;4.07;;;1.37;;
20478;SDS011;10398;52.490;13.434;2023-04-25T14:11:42;5.47;;;1.10;;
20478;SDS011;10398;52.490;13.434;2023-04-25T14:14:08;4.37;;;1.10;;
20478;SDS011;10398;52.490;13.434;2023-04-25T14:16:34;4.70;;;1.10;;
20478;SDS011;10398;52.490;13.434;2023-04-25T14:19:00;6.47;;;1.30;;
20478;SDS011;10398;52.490;13.434;2023-04-25T14:21:26;6.27;;;1.50;;
20478;SDS011;10398;52.490;13.434;2023-04-25T14:23:53;10.77;;;1.20;;
20478;SDS011;10398;52.490;13.434;2023-04-25T14:26:19;3.10;;;1.50;;
20478;SDS011;10398;52.490;13.434;2023-04-25T14:28:45;7.40;;;1.57;;
20478;SDS011;10398;52.490;13.434;2023-04-25T14:31:11;4.90;;;1.60;;
20478;SDS011;10398;52.490;13.434;2023-04-25T14:33:36;4.13;;;1.30;;
20478;SDS011;10398;52.490;13.434;2023-04-25T14:36:04;5.77;;;1.00;;
20478;SDS011;10398;52.490;13.434;2023-04-25T14:38:30;5.70;;;1.27;;
20478;SDS011;10398;52.490;13.434;2023-04-25T14:40:56;5.67;;;1.80;;
20478;SDS011;10398;52.490;13.434;2023-04-25T14:43:21;3.10;;;0.80;;